Flight Track Log - Related Links

Times and Time Zones

All times are in EDT time to prevent confusion due to time zone crossing. See the AAY891 flight status page for this flight to view local times or setup timezone preferences in your user account.

Time Position Orientation Groundspeed Altitude Reporting Facility
EDT Latitude Longitude Course Direction KTS MPH feet Rate Location/Type
Fri 07:20:40 PM 40.9478 -85.1017 97° East 233 268 3,900  Level Chicago Center
Fri 07:21:42 PM 40.8817 -85.0597 154° Southeast 253 291 6,500 2,832 Climbing Chicago Center
Fri 07:22:45 PM 40.8019 -84.9878 146° Southeast 283 326 9,800 2,208 Climbing Chicago Center
Fri 07:23:47 PM 40.7264 -84.9286 149° Southeast 312 359 11,100 1,210 Climbing Chicago Center
Fri 07:24:49 PM 40.6425 -84.8669 151° Southeast 354 407 12,300 1,548 Climbing Chicago Center
Fri 07:25:00 PM 40.3120 -85.0454 146° Southeast  Level Estimated
Fri 07:25:20 PM 40.5892 -84.8275 151° Southeast 377 434 13,500  Level Indianapolis Center
Fri 07:26:00 PM 40.2973 -84.8989 97° East  Level FlightAware Approximate
Fri 07:26:22 PM 40.4906 -84.7489 149° Southeast 406 467 15,600  Level Indianapolis Center
Fri 07:27:24 PM 40.3878 -84.6711 150° Southeast 420 483 17,800 1,902 Climbing Indianapolis Center
Fri 07:28:25 PM 40.2594 -84.5750 150° Southeast 437 503 19,500 1,610 Climbing Indianapolis Center
Fri 07:29:27 PM 40.1478 -84.4944 151° Southeast 452 520 21,100 1,500 Climbing Indianapolis Center
Fri 07:30:29 PM 40.0350 -84.4119 151° Southeast 462 532 22,600 1,452 Climbing Indianapolis Center
Fri 07:31:31 PM 39.9042 -84.3856 171° South 479 551 24,100 1,659 Climbing Indianapolis Center
Fri 07:32:32 PM 39.7714 -84.3778 177° South 479 551 26,000 1,659 Climbing Indianapolis Center
Fri 07:33:34 PM 39.6414 -84.3764 180° South 478 550 27,500 1,645 Climbing Indianapolis Center
Fri 07:34:36 PM 39.4869 -84.3672 177° South 470 541 29,400 1,500 Climbing Indianapolis Center
Fri 07:35:38 PM 39.3603 -84.3539 175° South 465 535 30,600 774 Climbing Indianapolis Center
Fri 07:36:40 PM 39.2353 -84.3433 176° South 458 527 31,000 195 Climbing Indianapolis Center
Fri 07:37:41 PM 39.1050 -84.3369 178° South 463 533 31,000  Level Indianapolis Center
Fri 07:38:43 PM 38.9778 -84.3328 179° South 463 533 31,000  Level Indianapolis Center
Fri 07:39:45 PM 38.8492 -84.3256 177° South 463 533 31,000  Level Indianapolis Center
Fri 07:40:47 PM 38.6981 -84.3103 175° South 460 529 31,000  Level Indianapolis Center
Fri 07:41:49 PM 38.5789 -84.2972 175° South 460 529 31,000  Level Indianapolis Center
Fri 07:42:51 PM 38.4522 -84.2803 174° South 460 529 31,000  Level Indianapolis Center
Fri 07:43:53 PM 38.3033 -84.2550 172° South 459 528 31,000  Level Indianapolis Center
Fri 07:44:54 PM 38.1764 -84.2333 172° South 460 529 31,000  Level Indianapolis Center
Fri 07:45:56 PM 38.0483 -84.2150 174° South 460 529 31,000  Level Indianapolis Center
Fri 07:46:58 PM 37.9186 -84.1969 174° South 464 534 31,000  Level Indianapolis Center
Fri 07:48:00 PM 37.7872 -84.1781 174° South 469 540 31,000  Level Indianapolis Center
Fri 07:49:02 PM 37.6356 -84.1531 173° South 470 541 31,000  Level Indianapolis Center
Fri 07:50:04 PM 37.5064 -84.1328 173° South 470 541 31,000 48 Level Indianapolis Center
Fri 07:51:06 PM 37.3772 -84.1125 173° South 470 541 31,100 488 Climbing Indianapolis Center
Fri 07:52:07 PM 37.2492 -84.0942 173° South 467 537 32,000 537 Climbing Indianapolis Center
Fri 07:53:09 PM 37.1211 -84.0750 173° South 465 535 32,200 435 Climbing Indianapolis Center
Fri 07:54:11 PM 36.9919 -84.0553 173° South 465 535 32,900 387 Climbing Indianapolis Center
Fri 07:55:13 PM 36.8422 -84.0336 173° South 465 535 33,000 48 Climbing Indianapolis Center
Fri 07:56:15 PM 36.7131 -84.0136 173° South 466 536 33,000  Level Indianapolis Center
Fri 07:57:17 PM 36.5844 -84.0111 179° South 466 536 33,000  Level Indianapolis Center
Fri 07:58:18 PM 36.4639 -84.0297 187° South 465 535 33,000  Level Indianapolis Center
Fri 07:59:20 PM 36.3369 -84.0539 189° South 465 535 33,000  Level Indianapolis Center
Fri 08:00:22 PM 36.1844 -84.0753 186° South 460 529 33,000  Level Indianapolis Center
Fri 08:01:24 PM 36.0569 -84.0906 186° South 460 529 33,000  Level Indianapolis Center
Fri 08:02:26 PM 35.9297 -84.1069 186° South 460 529 33,000  Level Indianapolis Center
Fri 08:03:28 PM 35.8022 -84.1269 187° South 459 528 33,000  Level Indianapolis Center
Fri 08:04:30 PM 35.6744 -84.1469 187° South 459 528 33,000  Level Indianapolis Center
Fri 08:05:31 PM 35.5483 -84.1658 187° South 458 527 33,000  Level Indianapolis Center
Fri 08:06:47 PM 35.3739 -84.1917 187° South 462 532 33,000  Level Atlanta Center
Fri 08:07:47 PM 35.2633 -84.2067 186° South 462 532 33,000  Level Atlanta Center
Fri 08:08:47 PM 35.1361 -84.2267 187° South 462 532 33,000  Level Atlanta Center
Fri 08:09:47 PM 35.0086 -84.2442 186° South 462 532 33,000  Level Atlanta Center
Fri 08:10:47 PM 34.8836 -84.2592 186° South 462 532 33,000  Level Atlanta Center
Fri 08:11:47 PM 34.7583 -84.2789 187° South 462 532 33,000  Level Atlanta Center
Fri 08:12:47 PM 34.6331 -84.2964 187° South 462 532 33,000  Level Atlanta Center
Fri 08:13:47 PM 34.5056 -84.3136 186° South 462 532 33,000  Level Atlanta Center
Fri 08:14:47 PM 34.3825 -84.3333 188° South 462 532 33,000  Level Atlanta Center
Fri 08:15:47 PM 34.2572 -84.3506 186° South 462 532 33,000  Level Atlanta Center
Fri 08:16:47 PM 34.1111 -84.3700 186° South 473 544 33,000  Level Atlanta Center
Fri 08:17:47 PM 33.9878 -84.3869 186° South 473 544 33,000  Level Atlanta Center
Fri 08:18:47 PM 33.8606 -84.4042 186° South 466 536 33,000  Level Atlanta Center
Fri 08:19:47 PM 33.7372 -84.4211 187° South 460 529 33,000  Level Atlanta Center
Fri 08:20:47 PM 33.6036 -84.4353 185° South 468 539 33,000  Level Atlanta Center
Fri 08:21:47 PM 33.4825 -84.4347 180° South 462 532 33,000  Level Atlanta Center
Fri 08:22:47 PM 33.3594 -84.4292 178° South 457 526 33,000  Level Atlanta Center
Fri 08:23:47 PM 33.2364 -84.4264 179° South 457 526 33,000  Level Atlanta Center
Fri 08:24:47 PM 33.1111 -84.4258 180° South 452 520 33,000  Level Atlanta Center
Fri 08:25:47 PM 32.9858 -84.4250 180° South 452 520 33,000  Level Atlanta Center
Fri 08:26:47 PM 32.8628 -84.4222 179° South 452 520 33,000 50 Level Atlanta Center
Fri 08:27:47 PM 32.7375 -84.4167 178° South 452 520 33,100  Climbing Atlanta Center
Fri 08:28:47 PM 32.6103 -84.4186 181° South 452 520 33,000 -50 Descending Atlanta Center
Fri 08:29:47 PM 32.4850 -84.3958 171° South 457 526 33,000  Level Atlanta Center
Fri 08:30:47 PM 32.3619 -84.3658 168° South 457 526 33,000  Level Atlanta Center
Fri 08:31:47 PM 32.2389 -84.3408 170° South 462 532 33,000  Level Atlanta Center
Fri 08:35:44 PM 31.7719 -84.1486 161° South 454 522 33,000  Level Jacksonville Center
Fri 08:36:44 PM 31.6469 -84.1322 174° South 454 522 33,000  Level Jacksonville Center
Fri 08:37:44 PM 31.5175 -84.1208 176° South 459 528 33,000  Level Jacksonville Center
Fri 08:38:44 PM 31.3903 -84.1047 174° South 459 528 33,000  Level Jacksonville Center
Fri 08:39:44 PM 31.2653 -84.0858 173° South 459 528 33,000  Level Jacksonville Center
Fri 08:40:44 PM 31.1483 -84.0675 172° South 466 536 33,000  Level Jacksonville Center
Fri 08:41:44 PM 31.0192 -84.0514 174° South 466 536 33,000  Level Jacksonville Center
Fri 08:42:44 PM 30.8897 -84.0353 174° South 466 536 33,000  Level Jacksonville Center
Fri 08:43:44 PM 30.7625 -84.0192 174° South 466 536 33,000  Level Jacksonville Center
Fri 08:44:44 PM 30.6356 -84.0008 173° South 461 531 33,000  Level Jacksonville Center
Fri 08:45:44 PM 30.5019 -83.9822 173° South 461 531 33,000  Level Jacksonville Center
Fri 08:46:44 PM 30.3747 -83.9664 174° South 456 525 33,000  Level Jacksonville Center
Fri 08:47:44 PM 30.2497 -83.9217 163° South 456 525 33,000  Level Jacksonville Center
Fri 08:48:44 PM 30.1311 -83.8725 160° South 456 525 33,000  Level Jacksonville Center
Fri 08:49:44 PM 30.0106 -83.8208 160° South 462 532 33,000  Level Jacksonville Center
Fri 08:50:44 PM 29.8856 -83.7742 162° South 462 532 33,000  Level Jacksonville Center
Fri 08:51:44 PM 29.7606 -83.7275 162° South 467 537 33,000  Level Jacksonville Center
Fri 08:52:44 PM 29.6356 -83.6786 161° South 467 537 33,000 -250 Level Jacksonville Center
Fri 08:53:44 PM 29.5108 -83.6275 160° South 467 537 32,500 -1,500 Descending Jacksonville Center
Fri 08:54:44 PM 29.3858 -83.5767 160° South 472 543 30,000 -2,450 Descending Jacksonville Center
Fri 08:55:44 PM 29.2650 -83.5306 162° South 472 543 27,600 -2,250 Descending Jacksonville Center
Fri 08:56:44 PM 29.1503 -83.4728 156° South 459 528 25,500 -1,900 Descending Jacksonville Center
Fri 08:57:44 PM 29.0525 -83.4056 149° Southeast 431 496 23,800 -1,700 Descending Jacksonville Center
Fri 08:58:44 PM 28.9631 -83.3436 149° Southeast 403 464 22,100 -1,650 Descending Jacksonville Center
Fri 08:59:44 PM 28.8736 -83.2886 152° Southeast 383 441 20,500 -1,650 Descending Jacksonville Center
Fri 09:00:44 PM 28.7944 -83.2408 152° Southeast 363 418 18,800 -1,650 Descending Jacksonville Center
Fri 09:01:44 PM 28.7089 -83.1861 151° Southeast 357 411 17,200 -1,600 Descending Jacksonville Center
Fri 09:02:44 PM 28.6297 -83.1361 151° Southeast 339 390 15,600 -1,563 Descending Jacksonville Center
Fri 09:03:43 PM 28.5500 -83.0833 150° Southeast 322 371 14,100 -1,412 Descending Tampa TRACON
Fri 09:04:43 PM 28.4667 -83.0333 152° Southeast 307 353 12,800 -1,600 Descending Tampa TRACON
Fri 09:05:43 PM 28.4000 -82.9833 147° Southeast 301 346 10,900 -1,699 Descending Tampa TRACON
Fri 09:06:36 PM 28.3453 -82.9403 145° Southeast 305 351 9,600 -1,526 Descending Miami Center
Fri 09:07:37 PM 28.2808 -82.8842 143° Southeast 298 343 8,000 -1,525 Descending Miami Center
Fri 09:08:38 PM 28.2200 -82.8303 142° Southeast 279 321 6,500 -1,525 Descending Miami Center
Fri 09:09:39 PM 28.1661 -82.7831 142° Southeast 250 288 4,900 -1,525 Descending Miami Center
Fri 09:10:40 PM 28.1164 -82.7394 142° Southeast 233 268 3,400 -1,296 Descending Miami Center
Fri 09:11:44 PM 28.0500 -82.7167 163° South 192 221 2,200 -871 Descending Tampa TRACON
Fri 09:12:44 PM 28.0000 -82.7000 164° South 152 175 1,600 -682 Descending Tampa TRACON
Fri 09:13:56 PM 27.9667 -82.7000 180° South 132 152 700 -750 Descending Tampa TRACON

Login

Don't have an account? Register now (free) for customized features, flight alerts, and more!